sensor_id;sensor_type;location;lat;lon;timestamp;temperature;humidity
25482;DHT22;13395;50.752;4.268;2022-08-02T00:01:38;20.00;99.90
25482;DHT22;13395;50.752;4.268;2022-08-02T00:04:04;19.90;99.90
25482;DHT22;13395;50.752;4.268;2022-08-02T00:06:30;19.90;99.90
25482;DHT22;13395;50.752;4.268;2022-08-02T00:08:56;19.90;99.90
25482;DHT22;13395;50.752;4.268;2022-08-02T00:11:22;19.90;99.90
25482;DHT22;13395;50.752;4.268;2022-08-02T00:13:47;19.90;99.90
25482;DHT22;13395;50.752;4.268;2022-08-02T00:16:13;19.80;99.90
25482;DHT22;13395;50.752;4.268;2022-08-02T00:18:39;19.90;99.90
25482;DHT22;13395;50.752;4.268;2022-08-02T00:21:05;19.80;99.90
25482;DHT22;13395;50.752;4.268;2022-08-02T00:23:30;19.80;99.90
25482;DHT22;13395;50.752;4.268;2022-08-02T00:25:56;19.70;99.90
25482;DHT22;13395;50.752;4.268;2022-08-02T00:28:23;19.70;99.90
25482;DHT22;13395;50.752;4.268;2022-08-02T00:30:49;19.80;99.90
25482;DHT22;13395;50.752;4.268;2022-08-02T00:33:15;19.80;99.90
25482;DHT22;13395;50.752;4.268;2022-08-02T00:35:40;19.60;99.90
25482;DHT22;13395;50.752;4.268;2022-08-02T00:38:06;19.50;99.90
25482;DHT22;13395;50.752;4.268;2022-08-02T00:40:32;19.50;99.90
25482;DHT22;13395;50.752;4.268;2022-08-02T00:43:06;19.50;99.90
25482;DHT22;13395;50.752;4.268;2022-08-02T00:45:37;19.50;99.90
25482;DHT22;13395;50.752;4.268;2022-08-02T00:48:04;19.50;99.90
25482;DHT22;13395;50.752;4.268;2022-08-02T00:50:31;19.40;99.90
25482;DHT22;13395;50.752;4.268;2022-08-02T00:52:57;19.50;99.90
25482;DHT22;13395;50.752;4.268;2022-08-02T00:55:24;19.60;99.90
25482;DHT22;13395;50.752;4.268;2022-08-02T00:57:50;19.60;99.90
25482;DHT22;13395;50.752;4.268;2022-08-02T01:00:16;19.60;99.90
25482;DHT22;13395;50.752;4.268;2022-08-02T01:02:42;19.80;99.90
25482;DHT22;13395;50.752;4.268;2022-08-02T01:05:08;19.80;99.90
25482;DHT22;13395;50.752;4.268;2022-08-02T01:07:34;19.90;99.90
25482;DHT22;13395;50.752;4.268;2022-08-02T01:10:00;20.00;99.90
25482;DHT22;13395;50.752;4.268;2022-08-02T01:12:26;20.00;99.90
25482;DHT22;13395;50.752;4.268;2022-08-02T01:14:55;19.90;99.90
25482;DHT22;13395;50.752;4.268;2022-08-02T01:20:13;19.60;99.90
25482;DHT22;13395;50.752;4.268;2022-08-02T01:23:24;19.60;99.90
25482;DHT22;13395;50.752;4.268;2022-08-02T01:30:57;19.50;99.90
25482;DHT22;13395;50.752;4.268;2022-08-02T01:33:29;19.50;99.90
25482;DHT22;13395;50.752;4.268;2022-08-02T01:35:57;19.40;99.90
25482;DHT22;13395;50.752;4.268;2022-08-02T01:38:39;19.40;99.90
25482;DHT22;13395;50.752;4.268;2022-08-02T01:41:09;19.40;99.90
25482;DHT22;13395;50.752;4.268;2022-08-02T01:43:37;19.40;99.90
25482;DHT22;13395;50.752;4.268;2022-08-02T01:46:04;19.40;99.90
25482;DHT22;13395;50.752;4.268;2022-08-02T01:48:33;19.40;99.90
25482;DHT22;13395;50.752;4.268;2022-08-02T01:51:00;19.40;99.90
25482;DHT22;13395;50.752;4.268;2022-08-02T01:53:28;19.30;99.90
25482;DHT22;13395;50.752;4.268;2022-08-02T01:55:57;19.30;99.90
25482;DHT22;13395;50.752;4.268;2022-08-02T01:58:26;19.30;99.90
25482;DHT22;13395;50.752;4.268;2022-08-02T02:00:52;19.40;99.90
25482;DHT22;13395;50.752;4.268;2022-08-02T02:03:23;19.30;99.90
25482;DHT22;13395;50.752;4.268;2022-08-02T02:05:50;19.30;99.90
25482;DHT22;13395;50.752;4.268;2022-08-02T02:08:23;19.30;99.90
25482;DHT22;13395;50.752;4.268;2022-08-02T02:10:49;19.40;99.90
25482;DHT22;13395;50.752;4.268;2022-08-02T02:13:18;19.40;99.90
25482;DHT22;13395;50.752;4.268;2022-08-02T02:15:46;19.50;99.90
25482;DHT22;13395;50.752;4.268;2022-08-02T02:18:17;19.50;99.90
25482;DHT22;13395;50.752;4.268;2022-08-02T02:20:45;19.70;99.90
25482;DHT22;13395;50.752;4.268;2022-08-02T02:23:11;19.80;99.90
25482;DHT22;13395;50.752;4.268;2022-08-02T02:25:40;19.80;99.90
25482;DHT22;13395;50.752;4.268;2022-08-02T02:28:12;19.80;99.90
25482;DHT22;13395;50.752;4.268;2022-08-02T02:30:40;19.80;99.90
25482;DHT22;13395;50.752;4.268;2022-08-02T02:33:07;19.70;99.90
25482;DHT22;13395;50.752;4.268;2022-08-02T02:35:36;19.70;99.90
25482;DHT22;13395;50.752;4.268;2022-08-02T02:38:06;19.70;99.90
25482;DHT22;13395;50.752;4.268;2022-08-02T02:40:34;19.70;99.90
25482;DHT22;13395;50.752;4.268;2022-08-02T02:43:02;19.70;99.90
25482;DHT22;13395;50.752;4.268;2022-08-02T02:45:29;19.80;99.90
25482;DHT22;13395;50.752;4.268;2022-08-02T02:47:57;19.80;99.90
25482;DHT22;13395;50.752;4.268;2022-08-02T02:50:25;19.90;99.90
25482;DHT22;13395;50.752;4.268;2022-08-02T02:52:51;19.90;99.90
25482;DHT22;13395;50.752;4.268;2022-08-02T02:55:17;20.00;99.90
25482;DHT22;13395;50.752;4.268;2022-08-02T02:57:44;19.90;99.90
25482;DHT22;13395;50.752;4.268;2022-08-02T03:00:12;19.80;99.90
25482;DHT22;13395;50.752;4.268;2022-08-02T03:02:39;19.80;99.90
25482;DHT22;13395;50.752;4.268;2022-08-02T03:05:07;19.80;99.90
25482;DHT22;13395;50.752;4.268;2022-08-02T03:07:33;19.70;99.90
25482;DHT22;13395;50.752;4.268;2022-08-02T03:10:00;19.70;99.90
25482;DHT22;13395;50.752;4.268;2022-08-02T03:12:27;19.60;99.90
25482;DHT22;13395;50.752;4.268;2022-08-02T03:14:53;19.70;99.90
25482;DHT22;13395;50.752;4.268;2022-08-02T03:17:19;19.70;99.90
25482;DHT22;13395;50.752;4.268;2022-08-02T03:19:45;19.70;99.90
25482;DHT22;13395;50.752;4.268;2022-08-02T03:22:11;19.90;99.90
25482;DHT22;13395;50.752;4.268;2022-08-02T03:24:37;19.90;99.90
25482;DHT22;13395;50.752;4.268;2022-08-02T03:27:03;19.80;99.90
25482;DHT22;13395;50.752;4.268;2022-08-02T03:29:29;19.70;99.90
25482;DHT22;13395;50.752;4.268;2022-08-02T03:31:55;19.60;99.90
25482;DHT22;13395;50.752;4.268;2022-08-02T03:34:21;19.60;99.90
25482;DHT22;13395;50.752;4.268;2022-08-02T03:36:50;19.60;99.90
25482;DHT22;13395;50.752;4.268;2022-08-02T03:39:18;19.50;99.90
25482;DHT22;13395;50.752;4.268;2022-08-02T03:41:46;19.60;99.90
25482;DHT22;13395;50.752;4.268;2022-08-02T03:44:13;19.70;99.90
25482;DHT22;13395;50.752;4.268;2022-08-02T03:46:41;19.60;99.90
25482;DHT22;13395;50.752;4.268;2022-08-02T03:49:07;19.60;99.90
25482;DHT22;13395;50.752;4.268;2022-08-02T03:51:34;19.50;99.90
25482;DHT22;13395;50.752;4.268;2022-08-02T03:54:01;19.60;99.90
25482;DHT22;13395;50.752;4.268;2022-08-02T03:56:27;19.60;99.90
25482;DHT22;13395;50.752;4.268;2022-08-02T03:59:25;19.60;99.90
25482;DHT22;13395;50.752;4.268;2022-08-02T04:01:51;19.60;99.90
25482;DHT22;13395;50.752;4.268;2022-08-02T04:04:16;19.70;99.90
25482;DHT22;13395;50.752;4.268;2022-08-02T04:06:42;19.60;99.90
25482;DHT22;13395;50.752;4.268;2022-08-02T04:09:08;19.60;99.90
25482;DHT22;13395;50.752;4.268;2022-08-02T04:11:34;19.60;99.90
25482;DHT22;13395;50.752;4.268;2022-08-02T04:14:02;19.60;99.90
25482;DHT22;13395;50.752;4.268;2022-08-02T04:16:58;19.50;99.90
25482;DHT22;13395;50.752;4.268;2022-08-02T04:19:33;19.50;99.90
25482;DHT22;13395;50.752;4.268;2022-08-02T04:22:03;19.60;99.90
25482;DHT22;13395;50.752;4.268;2022-08-02T04:24:38;19.40;99.90
25482;DHT22;13395;50.752;4.268;2022-08-02T04:27:06;19.50;99.90
25482;DHT22;13395;50.752;4.268;2022-08-02T04:29:33;19.50;99.90
25482;DHT22;13395;50.752;4.268;2022-08-02T04:32:00;19.50;99.90
25482;DHT22;13395;50.752;4.268;2022-08-02T04:34:25;19.50;99.90
25482;DHT22;13395;50.752;4.268;2022-08-02T04:36:51;19.60;99.90
25482;DHT22;13395;50.752;4.268;2022-08-02T04:39:18;19.60;99.90
25482;DHT22;13395;50.752;4.268;2022-08-02T04:41:44;19.50;99.90
25482;DHT22;13395;50.752;4.268;2022-08-02T04:44:11;19.40;99.90
25482;DHT22;13395;50.752;4.268;2022-08-02T04:46:38;19.50;99.90
25482;DHT22;13395;50.752;4.268;2022-08-02T04:49:03;19.30;99.90
25482;DHT22;13395;50.752;4.268;2022-08-02T04:51:29;19.30;99.90
25482;DHT22;13395;50.752;4.268;2022-08-02T04:53:55;19.40;99.90
25482;DHT22;13395;50.752;4.268;2022-08-02T04:56:20;19.40;99.90
25482;DHT22;13395;50.752;4.268;2022-08-02T04:58:46;19.40;99.90
25482;DHT22;13395;50.752;4.268;2022-08-02T05:01:11;19.40;99.90
25482;DHT22;13395;50.752;4.268;2022-08-02T05:03:40;19.40;99.90
25482;DHT22;13395;50.752;4.268;2022-08-02T05:06:06;19.50;99.90
25482;DHT22;13395;50.752;4.268;2022-08-02T05:08:31;19.50;99.90
25482;DHT22;13395;50.752;4.268;2022-08-02T05:10:57;19.60;99.90
25482;DHT22;13395;50.752;4.268;2022-08-02T05:13:22;19.60;99.90
25482;DHT22;13395;50.752;4.268;2022-08-02T05:15:48;19.50;99.90
25482;DHT22;13395;50.752;4.268;2022-08-02T05:18:16;19.60;99.90
25482;DHT22;13395;50.752;4.268;2022-08-02T05:20:43;19.60;99.90
25482;DHT22;13395;50.752;4.268;2022-08-02T05:23:08;19.70;99.90
25482;DHT22;13395;50.752;4.268;2022-08-02T05:25:34;20.00;99.90
25482;DHT22;13395;50.752;4.268;2022-08-02T05:27:59;20.50;99.90
25482;DHT22;13395;50.752;4.268;2022-08-02T05:30:25;21.10;99.90
25482;DHT22;13395;50.752;4.268;2022-08-02T05:32:51;21.60;99.90
25482;DHT22;13395;50.752;4.268;2022-08-02T05:35:21;22.00;99.90
25482;DHT22;13395;50.752;4.268;2022-08-02T05:37:48;22.30;99.90
25482;DHT22;13395;50.752;4.268;2022-08-02T05:40:14;22.70;99.90
25482;DHT22;13395;50.752;4.268;2022-08-02T05:42:41;23.00;99.90
25482;DHT22;13395;50.752;4.268;2022-08-02T05:45:07;23.00;99.90
25482;DHT22;13395;50.752;4.268;2022-08-02T05:47:33;22.90;99.90
25482;DHT22;13395;50.752;4.268;2022-08-02T05:49:59;22.90;99.90
25482;DHT22;13395;50.752;4.268;2022-08-02T05:52:26;22.90;99.90
25482;DHT22;13395;50.752;4.268;2022-08-02T05:55:07;22.50;99.90
25482;DHT22;13395;50.752;4.268;2022-08-02T06:00:16;21.80;99.90
25482;DHT22;13395;50.752;4.268;2022-08-02T06:05:19;21.40;99.90
25482;DHT22;13395;50.752;4.268;2022-08-02T06:07:48;21.10;99.90
25482;DHT22;13395;50.752;4.268;2022-08-02T06:10:17;21.10;99.90
25482;DHT22;13395;50.752;4.268;2022-08-02T06:12:52;21.00;99.90
25482;DHT22;13395;50.752;4.268;2022-08-02T06:15:18;20.90;99.90
25482;DHT22;13395;50.752;4.268;2022-08-02T06:17:45;20.90;99.90
25482;DHT22;13395;50.752;4.268;2022-08-02T06:20:12;20.80;99.90
25482;DHT22;13395;50.752;4.268;2022-08-02T06:22:42;20.70;99.90
25482;DHT22;13395;50.752;4.268;2022-08-02T06:25:09;20.80;99.90
25482;DHT22;13395;50.752;4.268;2022-08-02T06:27:36;20.90;99.90
25482;DHT22;13395;50.752;4.268;2022-08-02T06:30:03;21.00;99.90
25482;DHT22;13395;50.752;4.268;2022-08-02T06:32:31;21.00;99.90
25482;DHT22;13395;50.752;4.268;2022-08-02T06:34:57;20.90;99.90
25482;DHT22;13395;50.752;4.268;2022-08-02T06:43:19;21.40;99.90
25482;DHT22;13395;50.752;4.268;2022-08-02T06:45:47;21.60;99.90
25482;DHT22;13395;50.752;4.268;2022-08-02T06:48:13;21.60;99.90
25482;DHT22;13395;50.752;4.268;2022-08-02T06:50:39;21.80;99.90
25482;DHT22;13395;50.752;4.268;2022-08-02T06:53:07;22.00;99.90
25482;DHT22;13395;50.752;4.268;2022-08-02T06:55:33;22.50;99.90
25482;DHT22;13395;50.752;4.268;2022-08-02T06:57:58;22.80;99.90
25482;DHT22;13395;50.752;4.268;2022-08-02T07:00:25;23.00;99.90
25482;DHT22;13395;50.752;4.268;2022-08-02T07:02:50;23.40;99.90
25482;DHT22;13395;50.752;4.268;2022-08-02T07:05:16;24.10;99.90
25482;DHT22;13395;50.752;4.268;2022-08-02T07:07:42;25.10;99.60
25482;DHT22;13395;50.752;4.268;2022-08-02T07:10:08;25.90;97.60
25482;DHT22;13395;50.752;4.268;2022-08-02T07:12:34;26.50;96.40
25482;DHT22;13395;50.752;4.268;2022-08-02T07:15:02;27.30;93.90
25482;DHT22;13395;50.752;4.268;2022-08-02T07:17:29;28.20;92.10
25482;DHT22;13395;50.752;4.268;2022-08-02T07:19:55;29.00;91.10
25482;DHT22;13395;50.752;4.268;2022-08-02T07:22:21;30.00;87.90
25482;DHT22;13395;50.752;4.268;2022-08-02T07:24:49;30.30;84.30
25482;DHT22;13395;50.752;4.268;2022-08-02T07:27:15;31.00;83.00
25482;DHT22;13395;50.752;4.268;2022-08-02T07:29:40;31.30;78.80
25482;DHT22;13395;50.752;4.268;2022-08-02T07:32:06;31.30;77.00
25482;DHT22;13395;50.752;4.268;2022-08-02T07:34:32;31.30;77.30
25482;DHT22;13395;50.752;4.268;2022-08-02T07:36:57;31.60;76.50
25482;DHT22;13395;50.752;4.268;2022-08-02T07:39:23;31.80;76.10
25482;DHT22;13395;50.752;4.268;2022-08-02T07:41:49;32.20;74.20
25482;DHT22;13395;50.752;4.268;2022-08-02T07:44:17;32.40;74.20
25482;DHT22;13395;50.752;4.268;2022-08-02T07:46:44;33.10;70.80
25482;DHT22;13395;50.752;4.268;2022-08-02T07:49:10;33.50;70.60
25482;DHT22;13395;50.752;4.268;2022-08-02T07:51:36;34.00;69.10
25482;DHT22;13395;50.752;4.268;2022-08-02T07:54:01;34.60;66.90
25482;DHT22;13395;50.752;4.268;2022-08-02T07:56:27;34.90;64.40
25482;DHT22;13395;50.752;4.268;2022-08-02T07:58:53;34.70;64.10
25482;DHT22;13395;50.752;4.268;2022-08-02T08:01:18;34.50;64.80
25482;DHT22;13395;50.752;4.268;2022-08-02T08:03:44;35.00;64.20
25482;DHT22;13395;50.752;4.268;2022-08-02T08:06:10;35.80;62.00
25482;DHT22;13395;50.752;4.268;2022-08-02T08:08:36;35.90;62.10
25482;DHT22;13395;50.752;4.268;2022-08-02T08:11:02;35.80;59.60
25482;DHT22;13395;50.752;4.268;2022-08-02T08:13:30;35.40;59.70
25482;DHT22;13395;50.752;4.268;2022-08-02T08:15:56;35.20;60.70
25482;DHT22;13395;50.752;4.268;2022-08-02T08:18:22;35.70;59.40
25482;DHT22;13395;50.752;4.268;2022-08-02T08:20:47;36.10;58.60
25482;DHT22;13395;50.752;4.268;2022-08-02T08:23:13;36.00;57.60
25482;DHT22;13395;50.752;4.268;2022-08-02T08:25:38;35.80;58.80
25482;DHT22;13395;50.752;4.268;2022-08-02T08:28:04;36.50;57.00
25482;DHT22;13395;50.752;4.268;2022-08-02T08:30:30;37.00;56.50
25482;DHT22;13395;50.752;4.268;2022-08-02T08:32:55;37.20;56.30
25482;DHT22;13395;50.752;4.268;2022-08-02T08:35:21;36.90;55.70
25482;DHT22;13395;50.752;4.268;2022-08-02T08:37:47;36.90;55.30
25482;DHT22;13395;50.752;4.268;2022-08-02T08:40:13;36.60;56.10
25482;DHT22;13395;50.752;4.268;2022-08-02T08:42:39;36.90;55.60
25482;DHT22;13395;50.752;4.268;2022-08-02T08:45:06;37.10;55.40
25482;DHT22;13395;50.752;4.268;2022-08-02T08:47:37;37.00;53.60
25482;DHT22;13395;50.752;4.268;2022-08-02T08:50:11;36.80;54.40
25482;DHT22;13395;50.752;4.268;2022-08-02T08:52:42;37.30;55.80
25482;DHT22;13395;50.752;4.268;2022-08-02T08:55:11;38.30;53.30
25482;DHT22;13395;50.752;4.268;2022-08-02T08:57:42;38.60;52.70
25482;DHT22;13395;50.752;4.268;2022-08-02T09:00:09;39.40;52.50
25482;DHT22;13395;50.752;4.268;2022-08-02T09:02:42;38.60;51.20
25482;DHT22;13395;50.752;4.268;2022-08-02T09:05:10;38.50;51.50
25482;DHT22;13395;50.752;4.268;2022-08-02T09:07:36;38.70;50.40
25482;DHT22;13395;50.752;4.268;2022-08-02T09:10:35;38.50;50.90
25482;DHT22;13395;50.752;4.268;2022-08-02T09:15:37;38.20;52.10
25482;DHT22;13395;50.752;4.268;2022-08-02T09:18:03;38.10;51.10
25482;DHT22;13395;50.752;4.268;2022-08-02T09:20:34;37.80;51.60
25482;DHT22;13395;50.752;4.268;2022-08-02T09:23:10;37.50;52.60
25482;DHT22;13395;50.752;4.268;2022-08-02T09:25:36;37.60;52.10
25482;DHT22;13395;50.752;4.268;2022-08-02T09:28:05;38.70;52.30
25482;DHT22;13395;50.752;4.268;2022-08-02T09:30:32;39.60;50.40
25482;DHT22;13395;50.752;4.268;2022-08-02T09:33:07;39.50;50.10
25482;DHT22;13395;50.752;4.268;2022-08-02T09:35:36;38.70;49.90
25482;DHT22;13395;50.752;4.268;2022-08-02T09:38:12;37.40;51.90
25482;DHT22;13395;50.752;4.268;2022-08-02T09:40:40;36.80;52.70
25482;DHT22;13395;50.752;4.268;2022-08-02T09:43:09;36.00;53.60
25482;DHT22;13395;50.752;4.268;2022-08-02T09:45:35;36.10;54.00
25482;DHT22;13395;50.752;4.268;2022-08-02T09:48:11;37.00;53.10
25482;DHT22;13395;50.752;4.268;2022-08-02T09:50:38;38.40;52.30
25482;DHT22;13395;50.752;4.268;2022-08-02T09:53:04;38.70;50.60
25482;DHT22;13395;50.752;4.268;2022-08-02T09:55:31;38.40;51.60
25482;DHT22;13395;50.752;4.268;2022-08-02T09:57:56;38.40;49.50
25482;DHT22;13395;50.752;4.268;2022-08-02T10:00:22;37.90;49.60
25482;DHT22;13395;50.752;4.268;2022-08-02T10:03:08;37.50;50.40
25482;DHT22;13395;50.752;4.268;2022-08-02T10:06:00;37.40;50.90
25482;DHT22;13395;50.752;4.268;2022-08-02T10:08:27;37.90;50.70
25482;DHT22;13395;50.752;4.268;2022-08-02T10:10:54;38.50;49.50
25482;DHT22;13395;50.752;4.268;2022-08-02T10:13:33;38.60;49.40
25482;DHT22;13395;50.752;4.268;2022-08-02T10:16:00;38.60;49.30
25482;DHT22;13395;50.752;4.268;2022-08-02T10:18:27;38.80;48.90
25482;DHT22;13395;50.752;4.268;2022-08-02T10:20:55;39.20;48.90
25482;DHT22;13395;50.752;4.268;2022-08-02T10:23:24;39.70;48.50
25482;DHT22;13395;50.752;4.268;2022-08-02T10:25:52;39.90;48.40
25482;DHT22;13395;50.752;4.268;2022-08-02T10:28:26;39.40;46.70
25482;DHT22;13395;50.752;4.268;2022-08-02T10:30:58;39.00;48.10
25482;DHT22;13395;50.752;4.268;2022-08-02T10:33:26;38.60;48.40
25482;DHT22;13395;50.752;4.268;2022-08-02T10:35:54;39.20;47.50
25482;DHT22;13395;50.752;4.268;2022-08-02T10:38:24;39.80;46.80
25482;DHT22;13395;50.752;4.268;2022-08-02T10:40:52;39.20;45.50
25482;DHT22;13395;50.752;4.268;2022-08-02T10:46:34;37.20;48.60
25482;DHT22;13395;50.752;4.268;2022-08-02T10:49:14;36.60;49.00
25482;DHT22;13395;50.752;4.268;2022-08-02T10:54:27;36.20;50.10
25482;DHT22;13395;50.752;4.268;2022-08-02T10:56:56;35.90;49.90
25482;DHT22;13395;50.752;4.268;2022-08-02T10:59:27;35.40;50.70
25482;DHT22;13395;50.752;4.268;2022-08-02T11:01:54;36.00;50.20
25482;DHT22;13395;50.752;4.268;2022-08-02T11:04:31;36.70;50.80
25482;DHT22;13395;50.752;4.268;2022-08-02T11:07:29;37.90;48.10
25482;DHT22;13395;50.752;4.268;2022-08-02T11:09:55;38.70;46.20
25482;DHT22;13395;50.752;4.268;2022-08-02T11:12:21;39.70;46.60
25482;DHT22;13395;50.752;4.268;2022-08-02T11:15:01;40.30;45.40
25482;DHT22;13395;50.752;4.268;2022-08-02T11:20:31;40.90;43.70
25482;DHT22;13395;50.752;4.268;2022-08-02T11:23:36;40.70;42.90
25482;DHT22;13395;50.752;4.268;2022-08-02T11:26:48;41.40;43.60
25482;DHT22;13395;50.752;4.268;2022-08-02T11:28:49;41.10;42.20
25482;DHT22;13395;50.752;4.268;2022-08-02T11:31:15;40.50;43.70
25482;DHT22;13395;50.752;4.268;2022-08-02T11:33:41;40.30;43.10
25482;DHT22;13395;50.752;4.268;2022-08-02T11:36:08;39.80;42.90
25482;DHT22;13395;50.752;4.268;2022-08-02T11:38:33;39.20;44.10
25482;DHT22;13395;50.752;4.268;2022-08-02T11:40:59;39.20;44.40
25482;DHT22;13395;50.752;4.268;2022-08-02T11:43:28;38.50;45.40
25482;DHT22;13395;50.752;4.268;2022-08-02T11:45:55;38.70;44.80
25482;DHT22;13395;50.752;4.268;2022-08-02T11:48:32;39.00;45.70
25482;DHT22;13395;50.752;4.268;2022-08-02T11:51:17;39.40;47.90
25482;DHT22;13395;50.752;4.268;2022-08-02T11:53:52;40.20;45.50
25482;DHT22;13395;50.752;4.268;2022-08-02T11:56:26;39.50;43.70
25482;DHT22;13395;50.752;4.268;2022-08-02T11:59:02;39.30;45.10
25482;DHT22;13395;50.752;4.268;2022-08-02T12:01:29;38.40;45.60
25482;DHT22;13395;50.752;4.268;2022-08-02T12:03:55;37.20;46.80
25482;DHT22;13395;50.752;4.268;2022-08-02T12:06:25;37.10;46.60
25482;DHT22;13395;50.752;4.268;2022-08-02T12:11:25;36.60;48.90
25482;DHT22;13395;50.752;4.268;2022-08-02T12:13:51;37.10;49.10
25482;DHT22;13395;50.752;4.268;2022-08-02T12:16:17;37.60;47.00
25482;DHT22;13395;50.752;4.268;2022-08-02T12:19:13;37.60;45.50
25482;DHT22;13395;50.752;4.268;2022-08-02T12:21:45;37.50;46.80
25482;DHT22;13395;50.752;4.268;2022-08-02T12:24:11;37.60;46.80
25482;DHT22;13395;50.752;4.268;2022-08-02T12:26:47;37.60;47.20
25482;DHT22;13395;50.752;4.268;2022-08-02T12:29:13;37.40;46.00
25482;DHT22;13395;50.752;4.268;2022-08-02T12:31:46;36.70;46.10
25482;DHT22;13395;50.752;4.268;2022-08-02T12:34:18;36.00;48.00
25482;DHT22;13395;50.752;4.268;2022-08-02T12:37:08;35.50;48.70
25482;DHT22;13395;50.752;4.268;2022-08-02T12:39:38;35.90;49.10
25482;DHT22;13395;50.752;4.268;2022-08-02T12:42:06;36.50;50.00
25482;DHT22;13395;50.752;4.268;2022-08-02T12:44:32;37.10;49.60
25482;DHT22;13395;50.752;4.268;2022-08-02T12:47:06;37.70;48.20
25482;DHT22;13395;50.752;4.268;2022-08-02T12:49:32;38.10;47.40
25482;DHT22;13395;50.752;4.268;2022-08-02T12:51:58;38.60;46.40
25482;DHT22;13395;50.752;4.268;2022-08-02T12:54:30;38.70;46.10
25482;DHT22;13395;50.752;4.268;2022-08-02T12:57:10;38.40;46.30
25482;DHT22;13395;50.752;4.268;2022-08-02T12:59:36;37.60;46.90
25482;DHT22;13395;50.752;4.268;2022-08-02T13:02:07;37.20;48.30
25482;DHT22;13395;50.752;4.268;2022-08-02T13:04:34;37.10;49.50
25482;DHT22;13395;50.752;4.268;2022-08-02T13:07:00;37.00;48.30
25482;DHT22;13395;50.752;4.268;2022-08-02T13:09:26;37.10;49.40
25482;DHT22;13395;50.752;4.268;2022-08-02T13:11:52;36.60;49.30
25482;DHT22;13395;50.752;4.268;2022-08-02T13:14:17;36.10;50.00
25482;DHT22;13395;50.752;4.268;2022-08-02T13:16:45;36.10;51.50
25482;DHT22;13395;50.752;4.268;2022-08-02T13:19:11;35.70;51.00
25482;DHT22;13395;50.752;4.268;2022-08-02T13:21:39;35.20;52.10
25482;DHT22;13395;50.752;4.268;2022-08-02T13:24:05;34.80;52.50
25482;DHT22;13395;50.752;4.268;2022-08-02T13:26:31;34.90;52.60
25482;DHT22;13395;50.752;4.268;2022-08-02T13:28:56;34.80;53.30
25482;DHT22;13395;50.752;4.268;2022-08-02T13:31:22;34.80;53.00
25482;DHT22;13395;50.752;4.268;2022-08-02T13:33:48;34.60;52.70
25482;DHT22;13395;50.752;4.268;2022-08-02T13:36:13;34.30;52.80
25482;DHT22;13395;50.752;4.268;2022-08-02T13:38:39;34.20;53.30
25482;DHT22;13395;50.752;4.268;2022-08-02T13:41:04;34.10;53.70
25482;DHT22;13395;50.752;4.268;2022-08-02T13:43:33;34.30;53.90
25482;DHT22;13395;50.752;4.268;2022-08-02T13:45:59;34.20;53.60
25482;DHT22;13395;50.752;4.268;2022-08-02T13:48:25;34.30;53.80
25482;DHT22;13395;50.752;4.268;2022-08-02T13:50:50;34.50;55.10
25482;DHT22;13395;50.752;4.268;2022-08-02T13:53:16;34.30;52.80
25482;DHT22;13395;50.752;4.268;2022-08-02T13:55:41;34.10;53.00
25482;DHT22;13395;50.752;4.268;2022-08-02T13:58:07;34.00;54.50
25482;DHT22;13395;50.752;4.268;2022-08-02T14:00:34;34.00;53.80
25482;DHT22;13395;50.752;4.268;2022-08-02T14:02:59;33.80;54.60
25482;DHT22;13395;50.752;4.268;2022-08-02T14:05:25;33.50;54.60
25482;DHT22;13395;50.752;4.268;2022-08-02T14:07:58;33.40;55.70
25482;DHT22;13395;50.752;4.268;2022-08-02T14:10:24;33.30;56.80
25482;DHT22;13395;50.752;4.268;2022-08-02T14:12:53;33.20;55.90
25482;DHT22;13395;50.752;4.268;2022-08-02T14:15:19;33.30;56.40
25482;DHT22;13395;50.752;4.268;2022-08-02T14:17:45;33.30;56.20
25482;DHT22;13395;50.752;4.268;2022-08-02T14:20:11;33.50;55.80
25482;DHT22;13395;50.752;4.268;2022-08-02T14:22:37;33.30;55.80
25482;DHT22;13395;50.752;4.268;2022-08-02T14:25:03;33.10;56.40
25482;DHT22;13395;50.752;4.268;2022-08-02T14:27:29;32.90;57.00
25482;DHT22;13395;50.752;4.268;2022-08-02T14:29:58;32.80;57.70
25482;DHT22;13395;50.752;4.268;2022-08-02T14:32:24;32.90;57.90
25482;DHT22;13395;50.752;4.268;2022-08-02T14:34:50;32.90;57.70
25482;DHT22;13395;50.752;4.268;2022-08-02T14:37:16;32.70;58.00
25482;DHT22;13395;50.752;4.268;2022-08-02T14:39:42;32.80;57.20
25482;DHT22;13395;50.752;4.268;2022-08-02T14:42:07;32.60;57.00
25482;DHT22;13395;50.752;4.268;2022-08-02T14:44:33;32.50;57.70
25482;DHT22;13395;50.752;4.268;2022-08-02T14:46:59;32.30;59.00
25482;DHT22;13395;50.752;4.268;2022-08-02T14:49:25;32.50;58.40
25482;DHT22;13395;50.752;4.268;2022-08-02T14:51:51;32.50;56.90
25482;DHT22;13395;50.752;4.268;2022-08-02T14:54:17;32.30;58.10
25482;DHT22;13395;50.752;4.268;2022-08-02T14:56:42;32.40;58.70
25482;DHT22;13395;50.752;4.268;2022-08-02T14:59:08;32.40;58.80
25482;DHT22;13395;50.752;4.268;2022-08-02T15:01:34;32.40;57.80
25482;DHT22;13395;50.752;4.268;2022-08-02T15:03:59;32.30;58.80
25482;DHT22;13395;50.752;4.268;2022-08-02T15:06:25;32.30;59.10
25482;DHT22;13395;50.752;4.268;2022-08-02T15:08:58;32.30;59.90
25482;DHT22;13395;50.752;4.268;2022-08-02T15:11:24;32.40;59.30
25482;DHT22;13395;50.752;4.268;2022-08-02T15:13:50;32.50;59.30
25482;DHT22;13395;50.752;4.268;2022-08-02T15:16:15;32.50;58.40
25482;DHT22;13395;50.752;4.268;2022-08-02T15:18:42;32.70;58.60
25482;DHT22;13395;50.752;4.268;2022-08-02T15:21:08;32.80;58.60
25482;DHT22;13395;50.752;4.268;2022-08-02T15:23:36;32.60;57.90
25482;DHT22;13395;50.752;4.268;2022-08-02T15:26:03;32.50;59.10
25482;DHT22;13395;50.752;4.268;2022-08-02T15:28:29;32.60;58.50
25482;DHT22;13395;50.752;4.268;2022-08-02T15:30:56;32.50;59.00
25482;DHT22;13395;50.752;4.268;2022-08-02T15:33:22;32.40;58.50
25482;DHT22;13395;50.752;4.268;2022-08-02T15:35:49;32.30;58.90
25482;DHT22;13395;50.752;4.268;2022-08-02T15:38:14;32.40;59.60
25482;DHT22;13395;50.752;4.268;2022-08-02T15:40:40;32.30;58.60
25482;DHT22;13395;50.752;4.268;2022-08-02T15:43:08;32.20;59.00
25482;DHT22;13395;50.752;4.268;2022-08-02T15:45:35;32.20;60.10
25482;DHT22;13395;50.752;4.268;2022-08-02T15:48:01;32.20;59.60
25482;DHT22;13395;50.752;4.268;2022-08-02T15:50:27;32.00;59.50
25482;DHT22;13395;50.752;4.268;2022-08-02T15:52:52;32.00;59.90
25482;DHT22;13395;50.752;4.268;2022-08-02T15:55:18;31.90;60.30
25482;DHT22;13395;50.752;4.268;2022-08-02T15:57:43;31.80;60.10
25482;DHT22;13395;50.752;4.268;2022-08-02T16:00:10;31.90;59.70
25482;DHT22;13395;50.752;4.268;2022-08-02T16:02:35;31.80;60.70
25482;DHT22;13395;50.752;4.268;2022-08-02T16:05:01;31.90;61.30
25482;DHT22;13395;50.752;4.268;2022-08-02T16:07:27;31.80;61.20
25482;DHT22;13395;50.752;4.268;2022-08-02T16:09:52;31.70;60.50